Time;durP1;ratioP1;P1;durP2;ratioP2;P2;SDS_P1;SDS_P2;PMS_P1;PMS_P2;Temp;Humidity;BMP_temperature;BMP_pressure;BME280_temperature;BME280_humidity;BME280_pressure;Samples;Min_cycle;Max_cycle;Signal;HPM_P1;HPM_P2
2024/04/11 00:00:12;;;;;;;1999.90;999.90;;;8.00;72.40;;;;;;6475820;22;20218;-67
2024/04/11 00:02:38;;;;;;;1999.90;999.90;;;7.90;72.50;;;;;;6431365;22;20261;-67
2024/04/11 00:05:04;;;;;;;1999.90;999.90;;;7.90;72.50;;;;;;6475630;22;20222;-67
2024/04/11 00:07:30;;;;;;;1999.90;999.90;;;7.90;72.50;;;;;;6430445;22;20238;-68
2024/04/11 00:09:56;;;;;;;1999.90;999.90;;;7.90;72.50;;;;;;6475724;22;20226;-68
2024/04/11 00:12:21;;;;;;;1999.90;999.90;;;7.90;72.60;;;;;;6475545;22;20329;-69
2024/04/11 00:14:49;;;;;;;1999.90;999.90;;;7.80;72.70;;;;;;6475868;22;20222;-68
2024/04/11 00:22:53;;;;;;;1999.90;999.90;;;7.70;73.40;;;;;;6478082;22;20348;-68
2024/04/11 00:25:19;;;;;;;1999.90;999.90;;;7.70;73.40;;;;;;6475193;22;20222;-67
2024/04/11 00:27:45;;;;;;;1999.90;999.90;;;7.70;73.40;;;;;;6474573;22;20670;-68
2024/04/11 00:30:11;;;;;;;1999.90;999.90;;;7.50;73.30;;;;;;6475318;22;20306;-68
2024/04/11 00:32:37;;;;;;;1999.90;999.90;;;7.40;73.40;;;;;;6475459;22;20558;-68
2024/04/11 00:35:04;;;;;;;1999.90;999.90;;;7.40;73.50;;;;;;6475454;22;20226;-68
2024/04/11 00:37:31;;;;;;;1999.90;999.90;;;7.30;73.30;;;;;;6474607;22;20230;-68
2024/04/11 00:39:57;;;;;;;1999.90;999.90;;;7.10;73.30;;;;;;6431232;22;20268;-68
2024/04/11 00:42:23;;;;;;;1999.90;999.90;;;7.10;73.80;;;;;;6475583;22;20326;-68
2024/04/11 00:44:49;;;;;;;1999.90;999.90;;;7.00;74.00;;;;;;6475452;22;20230;-68
2024/04/11 00:47:21;;;;;;;1999.90;999.90;;;7.10;74.10;;;;;;6479221;21;20647;-69
2024/04/11 00:49:48;;;;;;;1999.90;999.90;;;7.10;74.10;;;;;;6475370;22;20214;-67
2024/04/11 00:52:14;;;;;;;1999.90;999.90;;;7.10;74.00;;;;;;6475153;22;20332;-68
2024/04/11 00:54:40;;;;;;;1999.90;999.90;;;7.20;74.00;;;;;;6475416;22;20221;-68
2024/04/11 00:57:08;;;;;;;1999.90;999.90;;;7.20;74.00;;;;;;6430077;22;20268;-68
2024/04/11 00:59:35;;;;;;;1999.90;999.90;;;7.20;73.90;;;;;;6475254;22;20215;-68
2024/04/11 01:02:04;;;;;;;1999.90;999.90;;;7.20;73.90;;;;;;6475461;22;20293;-68
2024/04/11 01:04:33;;;;;;;1999.90;999.90;;;7.20;74.20;;;;;;6475365;22;20214;-68
2024/04/11 01:07:08;;;;;;;1999.90;999.90;;;7.10;74.40;;;;;;6474355;22;20298;-67
2024/04/11 01:09:37;;;;;;;1999.90;999.90;;;7.20;74.70;;;;;;6475373;22;20225;-68
2024/04/11 01:12:03;;;;;;;1999.90;999.90;;;7.10;74.80;;;;;;6474955;22;20222;-67
2024/04/11 01:14:33;;;;;;;1999.90;999.90;;;7.20;74.90;;;;;;6475134;22;20256;-67
2024/04/11 01:16:58;;;;;;;1999.90;999.90;;;7.20;75.00;;;;;;6476119;22;20234;-68
2024/04/11 01:19:24;;;;;;;1999.90;999.90;;;7.20;74.90;;;;;;6477046;22;20350;-67
2024/04/11 01:21:50;;;;;;;1999.90;999.90;;;7.10;75.00;;;;;;6476886;22;20538;-67
2024/04/11 01:24:16;;;;;;;1999.90;999.90;;;7.10;75.00;;;;;;6477336;22;20721;-68
2024/04/11 01:31:53;;;;;;;1999.90;999.90;;;7.10;75.00;;;;;;6477370;22;20215;-68
2024/04/11 01:34:19;;;;;;;1999.90;999.90;;;7.10;75.10;;;;;;6477148;22;20662;-67
2024/04/11 01:36:45;;;;;;;1999.90;999.90;;;7.10;74.90;;;;;;6476104;22;20234;-67
2024/04/11 01:39:11;;;;;;;1999.90;999.90;;;7.10;74.90;;;;;;6477094;22;20633;-67
2024/04/11 01:41:38;;;;;;;1999.90;999.90;;;7.10;74.90;;;;;;6477354;22;20222;-67
2024/04/11 01:44:05;;;;;;;1999.90;999.90;;;7.10;74.80;;;;;;6476950;22;20271;-68
2024/04/11 01:46:30;;;;;;;1999.90;999.90;;;7.10;74.80;;;;;;6476467;22;20231;-67
2024/04/11 01:48:56;;;;;;;1999.90;999.90;;;7.10;74.70;;;;;;6476963;22;20218;-68
2024/04/11 01:51:23;;;;;;;1999.90;999.90;;;7.10;74.90;;;;;;6476755;22;20222;-67
2024/04/11 01:53:49;;;;;;;1999.90;999.90;;;7.00;75.00;;;;;;6476939;22;20211;-68
2024/04/11 01:56:14;;;;;;;1999.90;999.90;;;7.00;75.30;;;;;;6475755;22;20250;-67
2024/04/11 01:58:41;;;;;;;1999.90;999.90;;;7.00;75.40;;;;;;6476840;22;20214;-67
2024/04/11 02:01:12;;;;;;;1999.90;999.90;;;7.00;75.40;;;;;;6476635;22;20222;-67
2024/04/11 02:03:38;;;;;;;1999.90;999.90;;;7.00;75.20;;;;;;6476783;22;20677;-68
2024/04/11 02:06:07;;;;;;;1999.90;999.90;;;7.00;75.10;;;;;;6475559;22;20229;-68
2024/04/11 02:08:36;;;;;;;1999.90;999.90;;;6.90;75.10;;;;;;6432599;22;20315;-67
2024/04/11 02:11:03;;;;;;;1999.90;999.90;;;6.90;75.10;;;;;;6476922;22;20234;-68
2024/04/11 02:13:28;;;;;;;1999.90;999.90;;;6.90;75.10;;;;;;6476653;22;20261;-67
2024/04/11 02:15:54;;;;;;;1999.90;999.90;;;6.90;75.20;;;;;;6476406;22;20234;-67
2024/04/11 02:18:20;;;;;;;1999.90;999.90;;;6.90;75.20;;;;;;6475906;22;20304;-67
2024/04/11 02:20:47;;;;;;;1999.90;999.90;;;6.90;75.20;;;;;;6476503;22;20277;-67
2024/04/11 02:23:13;;;;;;;1999.90;999.90;;;6.90;75.20;;;;;;6432265;22;20225;-67
2024/04/11 02:25:46;;;;;;;1999.90;999.90;;;6.90;75.10;;;;;;6475337;21;20541;-67
2024/04/11 02:28:13;;;;;;;1999.90;999.90;;;6.90;75.00;;;;;;6475648;22;20272;-67
2024/04/11 02:30:39;;;;;;;1999.90;999.90;;;6.90;75.00;;;;;;6476275;22;20309;-68
2024/04/11 02:33:04;;;;;;;1999.90;999.90;;;6.90;74.90;;;;;;6476490;22;20230;-67
2024/04/11 02:35:30;;;;;;;1999.90;999.90;;;6.90;74.90;;;;;;6476103;22;20241;-68
2024/04/11 02:37:56;;;;;;;1999.90;999.90;;;6.80;74.90;;;;;;6475512;22;20220;-67
2024/04/11 02:40:21;;;;;;;1999.90;999.90;;;6.80;75.20;;;;;;6476616;22;20222;-67
2024/04/11 02:42:47;;;;;;;1999.90;999.90;;;6.70;75.40;;;;;;6476367;22;20569;-67
2024/04/11 02:45:15;;;;;;;1999.90;999.90;;;6.70;75.60;;;;;;6476494;22;20229;-68
2024/04/11 02:47:41;;;;;;;1999.90;999.90;;;6.70;75.70;;;;;;6431343;22;20268;-67
2024/04/11 02:50:09;;;;;;;1999.90;999.90;;;6.70;75.80;;;;;;6476154;22;20218;-68
2024/04/11 02:52:36;;;;;;;1999.90;999.90;;;6.70;75.80;;;;;;6476205;22;20249;-67
2024/04/11 02:55:04;;;;;;;1999.90;999.90;;;6.70;75.80;;;;;;6476027;22;20564;-67
2024/04/11 02:57:36;;;;;;;1999.90;999.90;;;6.70;75.70;;;;;;6474206;21;20262;-67
2024/04/11 03:00:01;;;;;;;1999.90;999.90;;;6.70;75.70;;;;;;6476274;22;20215;-67
2024/04/11 03:02:29;;;;;;;1999.90;999.90;;;6.70;75.70;;;;;;6476159;22;20263;-67
2024/04/11 03:04:57;;;;;;;1999.90;999.90;;;6.70;75.80;;;;;;6476080;22;20218;-68
2024/04/11 03:10:08;;;;;;;1999.90;999.90;;;6.60;76.00;;;;;;6486807;21;20277;-66
2024/04/11 03:12:34;;;;;;;1999.90;999.90;;;6.60;76.10;;;;;;6579833;21;20266;-66
2024/04/11 03:14:59;;;;;;;1999.90;999.90;;;6.60;76.20;;;;;;6580004;21;20322;-66
2024/04/11 03:17:25;;;;;;;1999.90;999.90;;;6.50;76.40;;;;;;6530453;21;20292;-67
2024/04/11 03:19:51;;;;;;;1999.90;999.90;;;6.50;76.60;;;;;;6527616;22;20213;-68
2024/04/11 03:22:16;;;;;;;1999.90;999.90;;;6.50;76.60;;;;;;6527785;22;20260;-67
2024/04/11 03:24:44;;;;;;;1999.90;999.90;;;6.60;76.70;;;;;;6527566;22;20620;-67
2024/04/11 03:27:10;;;;;;;1999.90;999.90;;;6.60;76.70;;;;;;6481601;22;20248;-67
2024/04/11 03:29:35;;;;;;;1999.90;999.90;;;6.60;76.70;;;;;;6527382;22;20325;-67
2024/04/11 03:32:01;;;;;;;1999.90;999.90;;;6.60;76.80;;;;;;6527519;22;20227;-67
2024/04/11 03:34:27;;;;;;;1999.90;999.90;;;6.60;76.80;;;;;;6527621;22;20221;-67
2024/04/11 03:40:03;;;;;;;1999.90;999.90;;;6.70;76.50;;;;;;6475265;22;20293;-68
2024/04/11 03:42:29;;;;;;;1999.90;999.90;;;6.70;76.40;;;;;;6453294;22;20265;-67
2024/04/11 03:44:56;;;;;;;1999.90;999.90;;;6.70;76.20;;;;;;6431683;22;20225;-67
2024/04/11 03:47:22;;;;;;;1999.90;999.90;;;6.70;76.10;;;;;;6474407;22;20261;-67
2024/04/11 03:49:52;;;;;;;1999.90;999.90;;;6.70;76.00;;;;;;6475696;22;20210;-68
2024/04/11 03:52:18;;;;;;;1999.90;999.90;;;6.60;76.00;;;;;;6475774;22;20210;-67
2024/04/11 03:54:43;;;;;;;1999.90;999.90;;;6.70;76.00;;;;;;6475868;22;20252;-67
2024/04/11 04:04:56;;;;;;;1999.90;999.90;;;6.70;76.10;;;;;;6476964;21;20292;-67
2024/04/11 04:17:50;;;;;;;1999.90;999.90;;;6.50;75.70;;;;;;6525316;21;20292;-68
2024/04/11 04:20:16;;;;;;;1999.90;999.90;;;6.50;75.80;;;;;;6526684;22;20233;-67
2024/04/11 04:22:43;;;;;;;1999.90;999.90;;;6.50;75.70;;;;;;6526564;22;20269;-67
2024/04/11 04:25:11;;;;;;;1999.90;999.90;;;6.50;75.70;;;;;;6526867;22;20217;-67
2024/04/11 04:27:37;;;;;;;1999.90;999.90;;;6.40;75.70;;;;;;6474744;22;20214;-67
2024/04/11 04:30:09;;;;;;;1999.90;999.90;;;6.40;75.80;;;;;;6475149;22;20259;-67
2024/04/11 04:32:36;;;;;;;1999.90;999.90;;;6.30;75.70;;;;;;6475592;22;20268;-67
2024/04/11 04:35:06;;;;;;;1999.90;999.90;;;6.30;75.80;;;;;;6475466;22;20699;-67
2024/04/11 04:37:34;;;;;;;1999.90;999.90;;;6.30;75.90;;;;;;6474426;22;20236;-67
2024/04/11 04:40:00;;;;;;;1999.90;999.90;;;6.20;75.80;;;;;;6475502;22;20222;-69
2024/04/11 04:42:25;;;;;;;1999.90;999.90;;;6.20;75.90;;;;;;6475659;22;20569;-67
2024/04/11 04:44:54;;;;;;;1999.90;999.90;;;6.20;76.00;;;;;;6475643;22;20217;-67
2024/04/11 04:47:28;;;;;;;1999.90;999.90;;;6.20;76.00;;;;;;6474922;22;20241;-67
2024/04/11 04:49:55;;;;;;;1999.90;999.90;;;6.20;76.00;;;;;;6476170;22;20536;-67
2024/04/11 04:52:25;;;;;;;1999.90;999.90;;;6.20;76.00;;;;;;6478002;22;20258;-67
2024/04/11 04:54:54;;;;;;;1999.90;999.90;;;6.10;76.00;;;;;;6433377;22;20316;-67
2024/04/11 04:57:38;;;;;;;1999.90;999.90;;;6.10;76.00;;;;;;6396243;22;20714;-67
2024/04/11 05:00:15;;;;;;;1999.90;999.90;;;6.10;76.00;;;;;;6427187;22;20223;-67
2024/04/11 05:02:41;;;;;;;1999.90;999.90;;;6.10;76.00;;;;;;6383533;22;20237;-67
2024/04/11 05:05:07;;;;;;;1999.90;999.90;;;6.10;75.90;;;;;;6427372;22;20656;-67
2024/04/11 05:07:33;;;;;;;1999.90;999.90;;;6.10;76.00;;;;;;6426390;22;20386;-67
2024/04/11 05:09:59;;;;;;;1999.90;999.90;;;6.10;76.00;;;;;;6426730;22;20273;-67
2024/04/11 05:12:27;;;;;;;1999.90;999.90;;;6.10;76.00;;;;;;6427187;22;20539;-67
2024/04/11 05:14:52;;;;;;;1999.90;999.90;;;6.10;76.00;;;;;;6426947;22;20227;-68
2024/04/11 05:17:19;;;;;;;1999.90;999.90;;;6.20;76.10;;;;;;6426004;22;20242;-67
2024/04/11 05:19:46;;;;;;;1999.90;999.90;;;6.20;76.00;;;;;;6426840;22;20348;-70
2024/04/11 05:22:12;;;;;;;1999.90;999.90;;;6.30;76.10;;;;;;6426199;22;20666;-67
2024/04/11 05:24:38;;;;;;;1999.90;999.90;;;6.40;76.10;;;;;;6425925;22;20734;-67
2024/04/11 05:27:04;;;;;;;1999.90;999.90;;;6.50;76.10;;;;;;6424816;22;20326;-67
2024/04/11 05:29:30;;;;;;;1999.90;999.90;;;6.50;76.10;;;;;;6425744;22;20223;-67
2024/04/11 05:31:56;;;;;;;1999.90;999.90;;;6.70;76.10;;;;;;6425630;22;20250;-67
2024/04/11 05:34:25;;;;;;;1999.90;999.90;;;6.80;76.10;;;;;;6425567;22;20481;-67
2024/04/11 05:39:29;;;;;;;1999.90;999.90;;;7.00;76.20;;;;;;6488574;21;20591;-67
2024/04/11 05:41:56;;;;;;;1999.90;999.90;;;7.20;76.20;;;;;;6476654;22;20513;-67
2024/04/11 05:44:22;;;;;;;1999.90;999.90;;;7.30;76.00;;;;;;6476420;22;20678;-67
2024/04/11 05:46:47;;;;;;;1999.90;999.90;;;7.50;75.90;;;;;;6474959;22;20246;-67
2024/04/11 05:49:16;;;;;;;1999.90;999.90;;;7.60;75.90;;;;;;6476070;22;20693;-67
2024/04/11 05:51:41;;;;;;;1999.90;999.90;;;7.70;75.90;;;;;;6476799;22;20549;-67
2024/04/11 05:54:09;;;;;;;1999.90;999.90;;;7.90;76.00;;;;;;6476352;22;20210;-67
2024/04/11 05:56:36;;;;;;;1999.90;999.90;;;8.00;75.90;;;;;;6475329;22;20231;-67
2024/04/11 05:59:02;;;;;;;1999.90;999.90;;;8.10;75.80;;;;;;6476067;22;20640;-68
2024/04/11 06:01:33;;;;;;;1999.90;999.90;;;8.20;75.90;;;;;;6431226;22;20230;-67
2024/04/11 06:03:59;;;;;;;1999.90;999.90;;;8.40;75.90;;;;;;6475842;22;20214;-68
2024/04/11 06:09:19;;;;;;;1999.90;999.90;;;8.80;75.80;;;;;;6525330;21;20304;-68
2024/04/11 06:11:45;;;;;;;1999.90;999.90;;;9.00;75.80;;;;;;6520470;22;20225;-68
2024/04/11 06:14:10;;;;;;;1999.90;999.90;;;9.20;75.30;;;;;;6475912;22;20266;-68
2024/04/11 06:16:37;;;;;;;1999.90;999.90;;;9.30;75.90;;;;;;6475105;22;20256;-68
2024/04/11 06:19:03;;;;;;;1999.90;999.90;;;9.50;75.20;;;;;;6475918;22;20259;-68
2024/04/11 06:21:32;;;;;;;1999.90;999.90;;;9.70;75.10;;;;;;6475750;22;20262;-68
2024/04/11 06:23:59;;;;;;;1999.90;999.90;;;9.90;74.90;;;;;;6431696;22;20222;-68
2024/04/11 06:26:26;;;;;;;1999.90;999.90;;;10.20;74.50;;;;;;6475097;22;20246;-68
2024/04/11 06:28:51;;;;;;;1999.90;999.90;;;10.40;74.10;;;;;;6476204;22;20731;-68
2024/04/11 06:31:17;;;;;;;1999.90;999.90;;;10.70;73.70;;;;;;6475512;22;20223;-68
2024/04/11 06:33:43;;;;;;;1999.90;999.90;;;10.90;73.30;;;;;;6431539;22;20239;-68
2024/04/11 06:36:12;;;;;;;1999.90;999.90;;;11.10;73.20;;;;;;6473824;22;20646;-68
2024/04/11 06:38:38;;;;;;;1999.90;999.90;;;11.30;73.00;;;;;;6475820;22;20706;-68
2024/04/11 06:41:04;;;;;;;1999.90;999.90;;;11.50;72.80;;;;;;6475396;22;20221;-68
2024/04/11 06:43:31;;;;;;;1999.90;999.90;;;11.60;72.50;;;;;;6475659;22;20219;-68
2024/04/11 06:48:29;;;;;;;1999.90;999.90;;;11.80;72.30;;;;;;6473679;22;20259;-68
2024/04/11 06:50:58;;;;;;;1999.90;999.90;;;11.90;72.00;;;;;;6474908;22;20229;-68
2024/04/11 06:53:23;;;;;;;1999.90;999.90;;;11.90;71.80;;;;;;6474708;22;20215;-68
2024/04/11 06:55:49;;;;;;;1999.90;999.90;;;11.90;71.60;;;;;;6475305;22;20234;-68
2024/04/11 06:58:22;;;;;;;1999.90;999.90;;;12.10;71.50;;;;;;6474645;22;20252;-68
2024/04/11 07:00:58;;;;;;;1999.90;999.90;;;12.30;72.10;;;;;;6475587;22;20214;-68
2024/04/11 07:03:26;;;;;;;1999.90;999.90;;;12.60;71.20;;;;;;6476076;22;20221;-68
2024/04/11 07:06:09;;;;;;;1999.90;999.90;;;12.80;70.70;;;;;;6472315;21;20690;-68
2024/04/11 07:08:37;;;;;;;1999.90;999.90;;;13.00;70.30;;;;;;6475471;22;20265;-68
2024/04/11 07:11:19;;;;;;;1999.90;999.90;;;13.00;69.80;;;;;;6475379;22;20269;-68
2024/04/11 07:13:49;;;;;;;1999.90;999.90;;;12.90;69.90;;;;;;6474682;22;20214;-68
2024/04/11 07:18:56;;;;;;;1999.90;999.90;;;13.10;70.10;;;;;;6537786;21;20291;-69
2024/04/11 07:21:25;;;;;;;1999.90;999.90;;;13.40;70.30;;;;;;6578789;21;20216;-68
2024/04/11 07:23:55;;;;;;;1999.90;999.90;;;13.80;69.60;;;;;;6578848;21;20216;-69
2024/04/11 07:26:22;;;;;;;1999.90;999.90;;;14.10;69.10;;;;;;6577852;21;20233;-69
2024/04/11 07:28:48;;;;;;;1999.90;999.90;;;14.30;68.70;;;;;;6578921;21;20558;-69
2024/04/11 07:31:14;;;;;;;1999.90;999.90;;;14.60;68.50;;;;;;6578897;21;20642;-70
2024/04/11 07:33:41;;;;;;;1999.90;999.90;;;15.00;67.80;;;;;;6578925;21;20326;-69
2024/04/11 07:51:39;;;;;;;1999.90;999.90;;;17.30;63.80;;;;;;6508839;21;20300;-69
2024/04/11 07:54:07;;;;;;;1999.90;999.90;;;17.50;63.20;;;;;;6475210;22;20642;-69
2024/04/11 07:56:35;;;;;;;1999.90;999.90;;;17.70;62.50;;;;;;6474180;22;20597;-70
2024/04/11 07:59:02;;;;;;;1999.90;999.90;;;17.80;62.10;;;;;;6430818;22;20729;-69
2024/04/11 08:01:31;;;;;;;1999.90;999.90;;;17.80;62.10;;;;;;6474913;22;21010;-69
2024/04/11 08:04:04;;;;;;;1999.90;999.90;;;18.00;62.10;;;;;;6475124;22;20219;-69
2024/04/11 08:06:34;;;;;;;1999.90;999.90;;;18.10;61.30;;;;;;6474500;22;20227;-69
2024/04/11 08:09:00;;;;;;;1999.90;999.90;;;18.30;60.70;;;;;;6475245;22;20262;-70
2024/04/11 08:11:30;;;;;;;1999.90;999.90;;;18.50;60.50;;;;;;6474863;22;20232;-70
2024/04/11 08:13:57;;;;;;;1999.90;999.90;;;18.60;60.00;;;;;;6475061;22;20271;-70
2024/04/11 08:18:55;;;;;;;1999.90;999.90;;;18.70;58.90;;;;;;6529335;21;20286;-70
2024/04/11 08:21:21;;;;;;;1999.90;999.90;;;18.70;58.60;;;;;;6526317;22;20220;-70
2024/04/11 08:23:47;;;;;;;1999.90;999.90;;;18.70;58.50;;;;;;6526410;22;20263;-69
2024/04/11 08:26:22;;;;;;;1999.90;999.90;;;18.70;58.20;;;;;;6511779;21;20277;-69
2024/04/11 08:28:48;;;;;;;1999.90;999.90;;;18.70;57.90;;;;;;6473186;22;20680;-70
2024/04/11 08:31:15;;;;;;;1999.90;999.90;;;18.80;57.90;;;;;;6474631;22;20267;-70
2024/04/11 08:33:42;;;;;;;1999.90;999.90;;;18.80;57.90;;;;;;6474747;22;20214;-70
2024/04/11 08:36:08;;;;;;;1999.90;999.90;;;18.90;57.60;;;;;;6473830;22;20245;-70
2024/04/11 08:38:41;;;;;;;1999.90;999.90;;;18.90;57.20;;;;;;6474691;22;20221;-70
2024/04/11 08:41:11;;;;;;;1999.90;999.90;;;18.80;57.10;;;;;;6474693;22;20217;-70
2024/04/11 08:43:38;;;;;;;1999.90;999.90;;;18.90;56.70;;;;;;6474558;22;20265;-70
2024/04/11 08:46:09;;;;;;;1999.90;999.90;;;18.90;56.60;;;;;;6473707;22;20226;-70
2024/04/11 08:48:37;;;;;;;1999.90;999.90;;;18.90;56.30;;;;;;6474366;22;20280;-70
2024/04/11 08:51:09;;;;;;;1999.90;999.90;;;18.90;56.40;;;;;;6474484;22;20214;-70
2024/04/11 08:53:41;;;;;;;1999.90;999.90;;;19.00;56.40;;;;;;6474564;22;20321;-70
2024/04/11 08:58:49;;;;;;;1999.90;999.90;;;19.20;56.20;;;;;;6474950;21;20278;-70
2024/04/11 09:01:21;;;;;;;1999.90;999.90;;;19.20;55.60;;;;;;6474404;22;20223;-69
2024/04/11 09:03:50;;;;;;;1999.90;999.90;;;19.20;54.90;;;;;;6474511;22;20218;-70
2024/04/11 09:06:23;;;;;;;1999.90;999.90;;;19.20;54.30;;;;;;6473692;22;20230;-70
2024/04/11 09:08:50;;;;;;;1999.90;999.90;;;19.20;54.00;;;;;;6474831;22;20540;-70
2024/04/11 09:11:16;;;;;;;1999.90;999.90;;;19.20;53.60;;;;;;6474773;22;20316;-70
2024/04/11 09:13:43;;;;;;;1999.90;999.90;;;19.20;53.40;;;;;;6430302;22;20541;-70
2024/04/11 09:16:09;;;;;;;1999.90;999.90;;;19.30;53.50;;;;;;6473920;22;20243;-70
2024/04/11 09:18:35;;;;;;;1999.90;999.90;;;19.50;53.60;;;;;;6475354;22;20207;-69
2024/04/11 09:21:06;;;;;;;1999.90;999.90;;;19.60;53.10;;;;;;6430146;22;20235;-69
2024/04/11 09:23:46;;;;;;;1999.90;999.90;;;19.70;53.10;;;;;;6474932;22;20530;-69
2024/04/11 09:26:13;;;;;;;1999.90;999.90;;;19.80;52.20;;;;;;6474282;22;20252;-69
2024/04/11 09:28:39;;;;;;;1999.90;999.90;;;19.80;51.80;;;;;;6430266;22;20222;-69
2024/04/11 09:31:06;;;;;;;1999.90;999.90;;;19.90;51.70;;;;;;6474559;22;20214;-69
2024/04/11 09:33:34;;;;;;;1999.90;999.90;;;20.00;51.30;;;;;;6474952;22;20234;-69
2024/04/11 09:36:03;;;;;;;1999.90;999.90;;;20.10;50.70;;;;;;6473875;22;20720;-68
2024/04/11 09:38:29;;;;;;;1999.90;999.90;;;20.20;50.40;;;;;;6432137;22;20249;-69
2024/04/11 09:40:57;;;;;;;1999.90;999.90;;;20.40;50.60;;;;;;6476801;22;20210;-69
2024/04/11 09:43:27;;;;;;;1999.90;999.90;;;20.60;49.90;;;;;;6476457;22;20253;-69
2024/04/11 09:51:16;;;;;;;1999.90;999.90;;;20.90;49.30;;;;;;6483097;21;20325;-69
2024/04/11 09:53:42;;;;;;;1999.90;999.90;;;21.20;49.00;;;;;;6476626;22;20218;-69
2024/04/11 09:56:15;;;;;;;1999.90;999.90;;;21.50;49.00;;;;;;6475490;22;20587;-69
2024/04/11 09:58:43;;;;;;;1999.90;999.90;;;21.70;48.70;;;;;;6476308;22;20219;-69
2024/04/11 10:01:16;;;;;;;1999.90;999.90;;;21.80;48.40;;;;;;6476726;22;20337;-69
2024/04/11 10:03:45;;;;;;;1999.90;999.90;;;21.80;48.30;;;;;;6476576;22;20216;-70
2024/04/11 10:09:30;;;;;;;1999.90;999.90;;;21.60;48.00;;;;;;6522835;22;20283;-69
2024/04/11 10:12:03;;;;;;;1999.90;999.90;;;21.50;48.20;;;;;;6424138;22;20223;-69
2024/04/11 10:14:32;;;;;;;1999.90;999.90;;;21.40;48.30;;;;;;6483133;22;20344;-69
2024/04/11 10:22:15;;;;;;;1999.90;999.90;;;21.20;47.30;;;;;;6582416;21;20305;-69
2024/04/11 10:24:44;;;;;;;1999.90;999.90;;;21.20;47.30;;;;;;6580562;21;20230;-69
2024/04/11 10:27:20;;;;;;;1999.90;999.90;;;21.30;47.00;;;;;;6579946;21;20241;-69
2024/04/11 10:29:47;;;;;;;1999.90;999.90;;;21.40;47.10;;;;;;6580142;21;20298;-70
2024/04/11 10:32:21;;;;;;;1999.90;999.90;;;21.50;46.80;;;;;;6580103;21;20219;-70
2024/04/11 10:34:55;;;;;;;1999.90;999.90;;;21.50;46.80;;;;;;6580702;21;20661;-70
2024/04/11 10:40:37;;;;;;;1999.90;999.90;;;21.80;46.60;;;;;;6580593;21;20348;-69
2024/04/11 10:43:11;;;;;;;1999.90;999.90;;;21.70;45.70;;;;;;6580032;21;20212;-70
2024/04/11 10:45:38;;;;;;;1999.90;999.90;;;21.70;46.40;;;;;;6580131;21;20232;-73
2024/04/11 10:48:09;;;;;;;1999.90;999.90;;;21.90;46.60;;;;;;6579165;21;20268;-70
2024/04/11 10:50:34;;;;;;;1999.90;999.90;;;22.10;46.30;;;;;;6580089;21;20223;-69
2024/04/11 10:53:03;;;;;;;1999.90;999.90;;;22.40;45.90;;;;;;6580322;21;20218;-70
2024/04/11 10:58:13;;;;;;;1999.90;999.90;;;22.70;45.30;;;;;;6478410;21;20306;-71
2024/04/11 11:06:51;;;;;;;1999.90;999.90;;;23.00;45.10;;;;;;6476032;21;20276;-71
2024/04/11 11:09:18;;;;;;;1999.90;999.90;;;23.10;45.10;;;;;;6475635;22;20267;-70
2024/04/11 11:11:45;;;;;;;1999.90;999.90;;;23.30;45.10;;;;;;6474301;22;20260;-70
2024/04/11 11:14:17;;;;;;;1999.90;999.90;;;23.40;44.80;;;;;;6475815;22;20260;-70
2024/04/11 11:16:57;;;;;;;1999.90;999.90;;;23.40;44.40;;;;;;6430607;22;20269;-72
2024/04/11 11:19:24;;;;;;;1999.90;999.90;;;23.50;44.30;;;;;;6476084;22;20225;-72
2024/04/11 11:21:50;;;;;;;1999.90;999.90;;;23.60;43.80;;;;;;6475889;22;20260;-73
2024/04/11 11:24:23;;;;;;;1999.90;999.90;;;23.70;43.50;;;;;;6475927;22;20643;-73
2024/04/11 11:26:56;;;;;;;1999.90;999.90;;;23.80;43.50;;;;;;6430965;22;20253;-72
2024/04/11 11:29:25;;;;;;;1999.90;999.90;;;23.80;43.10;;;;;;6475846;22;20226;-72
2024/04/11 11:31:53;;;;;;;1999.90;999.90;;;23.90;43.10;;;;;;6475750;22;20574;-73
2024/04/11 11:34:27;;;;;;;1999.90;999.90;;;24.20;43.20;;;;;;6475931;22;20777;-73
2024/04/11 11:36:58;;;;;;;1999.90;999.90;;;24.50;42.70;;;;;;6474996;22;20277;-72
2024/04/11 11:39:26;;;;;;;1999.90;999.90;;;24.60;42.30;;;;;;6475769;22;20218;-72
2024/04/11 11:42:03;;;;;;;1999.90;999.90;;;24.70;42.20;;;;;;6475628;22;20214;-72
2024/04/11 11:44:40;;;;;;;1999.90;999.90;;;24.50;43.00;;;;;;6475734;22;20282;-72
2024/04/11 11:47:07;;;;;;;1999.90;999.90;;;24.40;43.40;;;;;;6474442;22;20808;-73
2024/04/11 11:49:37;;;;;;;1999.90;999.90;;;24.20;43.50;;;;;;6475637;22;20230;-72
2024/04/11 11:52:04;;;;;;;1999.90;999.90;;;24.20;44.10;;;;;;6431380;22;20249;-72
2024/04/11 11:54:34;;;;;;;1999.90;999.90;;;23.90;44.10;;;;;;6475924;22;20285;-73
2024/04/11 11:57:09;;;;;;;1999.90;999.90;;;23.70;44.40;;;;;;6474931;22;20252;-70
2024/04/11 11:59:38;;;;;;;1999.90;999.90;;;23.50;44.70;;;;;;6475510;22;20217;-72
2024/04/11 12:02:05;;;;;;;1999.90;999.90;;;23.50;45.00;;;;;;6475505;22;20230;-72
2024/04/11 12:04:30;;;;;;;1999.90;999.90;;;23.40;45.10;;;;;;6475567;22;20218;-72
2024/04/11 12:09:43;;;;;;;1999.90;999.90;;;23.70;45.00;;;;;;6578855;21;20291;-70
2024/04/11 12:12:20;;;;;;;1999.90;999.90;;;23.90;44.50;;;;;;6577909;21;20266;-72
2024/04/11 12:14:55;;;;;;;1999.90;999.90;;;24.00;44.70;;;;;;6575813;21;20246;-72
2024/04/11 12:17:28;;;;;;;1999.90;999.90;;;23.90;45.70;;;;;;6526525;21;20272;-72
2024/04/11 12:19:54;;;;;;;1999.90;999.90;;;23.90;44.80;;;;;;6526169;22;20296;-72
2024/04/11 12:22:20;;;;;;;1999.90;999.90;;;23.80;44.70;;;;;;6481142;22;20228;-72
2024/04/11 12:24:46;;;;;;;1999.90;999.90;;;23.70;45.00;;;;;;6526543;22;20264;-73
2024/04/11 12:27:15;;;;;;;1999.90;999.90;;;23.70;45.40;;;;;;6480562;22;20241;-72
2024/04/11 12:29:42;;;;;;;1999.90;999.90;;;23.80;45.70;;;;;;6526334;22;20711;-72
2024/04/11 12:32:08;;;;;;;1999.90;999.90;;;23.80;45.80;;;;;;6525751;22;20256;-72
2024/04/11 12:34:37;;;;;;;1999.90;999.90;;;23.90;45.50;;;;;;6526467;22;20224;-72
2024/04/11 12:37:16;;;;;;;1999.90;999.90;;;24.00;45.50;;;;;;6487938;21;20297;-72
2024/04/11 12:39:45;;;;;;;1999.90;999.90;;;24.10;45.00;;;;;;6474773;22;20261;-72
2024/04/11 12:42:17;;;;;;;1999.90;999.90;;;24.20;45.00;;;;;;6475054;22;20836;-72
2024/04/11 12:44:46;;;;;;;1999.90;999.90;;;24.30;44.50;;;;;;6475295;22;20218;-72
2024/04/11 12:47:16;;;;;;;1999.90;999.90;;;24.40;44.80;;;;;;6474136;22;20234;-72
2024/04/11 12:49:47;;;;;;;1999.90;999.90;;;24.30;44.70;;;;;;6474643;22;20278;-72
2024/04/11 12:52:22;;;;;;;1999.90;999.90;;;24.00;45.10;;;;;;6474754;22;20268;-72
2024/04/11 12:54:54;;;;;;;1999.90;999.90;;;23.80;45.50;;;;;;6475266;22;20681;-72
2024/04/11 13:05:51;;;;;;;1999.90;999.90;;;22.60;46.80;;;;;;6482889;21;20288;-69
2024/04/11 13:08:21;;;;;;;1999.90;999.90;;;22.70;47.20;;;;;;6474713;22;20257;-70
2024/04/11 13:10:50;;;;;;;1999.90;999.90;;;22.80;46.70;;;;;;6475272;22;20222;-70
2024/04/11 13:13:19;;;;;;;1999.90;999.90;;;22.80;46.80;;;;;;6477192;22;20329;-70
2024/04/11 13:15:49;;;;;;;1999.90;999.90;;;22.90;47.30;;;;;;6474477;22;20297;-72
2024/04/11 13:18:16;;;;;;;1999.90;999.90;;;23.00;47.10;;;;;;6472474;22;20225;-72
2024/04/11 13:20:44;;;;;;;1999.90;999.90;;;23.00;47.10;;;;;;6476349;22;20260;-72
2024/04/11 13:23:10;;;;;;;1999.90;999.90;;;23.20;47.30;;;;;;6476515;22;20337;-72
2024/04/11 13:25:45;;;;;;;1999.90;999.90;;;23.30;47.30;;;;;;6476735;22;20230;-72
2024/04/11 13:28:14;;;;;;;1999.90;999.90;;;23.50;47.00;;;;;;6475979;22;20221;-72
2024/04/11 13:30:46;;;;;;;1999.90;999.90;;;23.70;46.30;;;;;;6476917;22;20214;-72
2024/04/11 13:33:15;;;;;;;1999.90;999.90;;;23.80;46.00;;;;;;6476861;22;20222;-72
2024/04/11 13:35:49;;;;;;;1999.90;999.90;;;24.00;46.00;;;;;;6479101;21;20776;-72
2024/04/11 13:38:21;;;;;;;1999.90;999.90;;;24.10;45.80;;;;;;6523636;22;20692;-72
2024/04/11 13:43:31;;;;;;;1999.90;999.90;;;24.70;45.50;;;;;;6528094;22;20794;-73
2024/04/11 13:46:06;;;;;;;1999.90;999.90;;;25.00;44.70;;;;;;6527569;21;20229;-73
2024/04/11 13:48:48;;;;;;;1999.90;999.90;;;25.00;44.60;;;;;;6527890;22;20677;-73
2024/04/11 13:51:24;;;;;;;1999.90;999.90;;;25.20;44.60;;;;;;6527582;22;20217;-73
2024/04/11 13:53:57;;;;;;;1999.90;999.90;;;25.40;44.40;;;;;;6527971;22;20221;-72